Date,TemperatureHighF,TemperatureAvgF,TemperatureLowF,DewpointHighF,DewpointAvgF,DewpointLowF,HumidityHigh,HumidityAvg,HumidityLow,PressureMaxIn,PressureMinIn,WindSpeedMaxMPH,WindSpeedAvgMPH,GustSpeedMaxMPH,PrecipitationSumIn
2013-10-1,72.3,57.9,46.0,57.0,51.4,44.0,98,81,57,29.94,29.83,9,1,0,0.00
2013-10-2,79.3,66.6,55.3,64.0,59.0,54.0,95,78,57,29.92,29.80,10,1,0,0.00
2013-10-3,78.4,63.6,55.0,59.0,55.2,52.0,92,76,47,30.06,29.93,5,0,0,0.00
2013-10-4,65.4,57.4,50.6,60.0,54.8,48.0,96,91,77,30.07,30.01,0,0,0,0.00
2013-10-5,65.8,60.5,56.7,61.0,57.5,56.0,98,90,71,30.10,30.03,5,0,0,0.00
2013-10-6,60.4,58.7,56.5,59.0,57.6,55.0,97,96,94,30.19,30.09,4,0,0,0.00
2013-10-7,74.4,68.9,60.5,71.0,67.1,59.0,99,94,87,30.10,29.82,13,3,0,0.00
2013-10-8,64.4,57.7,48.6,60.0,49.9,46.0,94,76,54,30.33,29.87,14,2,0,0.00
2013-10-9,61.8,55.5,48.4,49.0,47.1,44.0,94,74,61,30.43,30.33,5,0,0,0.00
2013-10-10,61.2,55.9,48.3,57.0,52.9,46.0,97,89,82,30.32,30.14,7,1,0,0.00
2013-10-11,61.3,57.4,50.0,57.0,54.5,48.0,96,90,82,30.13,30.08,10,3,0,0.00
2013-10-12,61.0,56.8,50.2,59.0,54.0,49.0,96,90,82,30.36,30.11,6,0,0,0.00
2013-10-13,60.7,54.0,41.7,51.0,47.8,40.0,92,80,68,30.41,30.33,4,0,0,0.00
2013-10-14,60.9,48.0,35.5,52.0,44.4,34.0,98,88,69,30.38,30.24,4,0,0,0.00
2013-10-15,65.9,54.8,44.8,54.0,49.7,44.0,98,84,53,30.25,30.15,5,0,0,0.00
2013-10-16,60.2,54.8,47.3,57.0,53.4,46.0,98,95,89,30.15,29.89,10,2,0,0.00
2013-10-17,69.9,61.5,55.4,62.0,58.7,55.0,98,91,75,29.89,29.71,6,0,0,0.00
2013-10-18,67.7,62.2,49.2,63.0,53.8,45.0,96,76,52,29.89,29.60,13,2,0,0.00
2013-10-19,64.5,54.2,43.8,51.0,45.8,41.0,90,75,49,29.97,29.75,7,0,0,0.00
2013-10-20,61.8,54.3,42.2,53.0,43.6,34.0,95,71,38,29.99,29.68,10,2,0,0.00
2013-10-21,65.8,51.4,38.8,48.0,41.4,36.0,91,72,43,30.09,29.99,7,0,0,0.00
2013-10-22,68.7,56.8,45.7,55.0,48.4,42.0,97,75,48,29.96,29.68,10,1,0,0.00
2013-10-23,52.5,46.0,38.1,42.0,39.2,36.0,94,78,57,29.78,29.57,4,0,0,0.00
2013-10-24,53.0,45.8,39.8,39.0,32.7,28.0,82,62,40,29.87,29.61,7,1,0,0.00
2013-10-25,49.3,41.9,34.1,36.0,31.3,28.0,83,67,51,30.14,29.87,9,1,0,0.00
2013-10-26,54.9,44.3,31.6,40.0,33.9,29.0,92,69,42,30.15,29.87,7,1,0,0.12
2013-10-27,55.3,48.2,42.9,42.0,37.0,32.0,92,67,46,30.04,29.80,8,1,0,0.12
2013-10-28,58.5,46.8,34.3,38.0,34.0,30.0,88,63,43,30.32,30.04,10,2,0,0.01
2013-10-29,48.3,39.4,30.6,38.0,32.5,28.0,90,77,61,30.40,30.32,5,0,0,0.01
2013-10-30,50.7,40.1,30.5,46.0,38.1,28.0,100,92,83,30.35,30.18,2,0,0,0.07
2013-10-31,64.0,51.0,34.8,61.0,48.6,33.0,99,91,81,30.22,29.83,13,2,0,0.02